createdAt,value
2023-03-17T00:00:23.716Z,100.00
2023-03-17T00:02:51.745Z,100.00
2023-03-17T00:05:23.691Z,100.00
2023-03-17T00:07:53.278Z,100.00
2023-03-17T00:10:23.113Z,100.00
2023-03-17T00:12:53.336Z,100.00
2023-03-17T00:15:21.653Z,100.00
2023-03-17T00:17:53.035Z,100.00
2023-03-17T00:20:26.469Z,100.00
2023-03-17T00:22:55.270Z,100.00
2023-03-17T00:25:26.055Z,100.00
2023-03-17T00:27:53.978Z,100.00
2023-03-17T00:30:22.780Z,100.00
2023-03-17T00:32:55.600Z,100.00
2023-03-17T00:35:26.125Z,100.00
2023-03-17T00:37:57.228Z,100.00
2023-03-17T00:40:29.417Z,100.00
2023-03-17T00:42:58.571Z,100.00
2023-03-17T00:45:27.202Z,100.00
2023-03-17T00:47:56.985Z,100.00
2023-03-17T00:50:27.716Z,100.00
2023-03-17T00:52:57.939Z,100.00
2023-03-17T00:55:27.484Z,100.00
2023-03-17T00:57:55.202Z,100.00
2023-03-17T01:00:26.356Z,100.00
2023-03-17T01:02:56.951Z,100.00
2023-03-17T01:05:26.562Z,100.00
2023-03-17T01:07:56.204Z,100.00
2023-03-17T01:10:26.156Z,100.00
2023-03-17T01:12:54.601Z,100.00
2023-03-17T01:15:23.836Z,100.00
2023-03-17T01:17:52.738Z,100.00
2023-03-17T01:20:25.082Z,100.00
2023-03-17T01:22:55.221Z,100.00
2023-03-17T01:25:27.539Z,100.00
2023-03-17T01:27:57.623Z,100.00
2023-03-17T01:30:28.745Z,100.00
2023-03-17T01:32:59.118Z,100.00
2023-03-17T01:35:31.504Z,100.00
2023-03-17T01:38:00.098Z,100.00
2023-03-17T01:40:30.612Z,100.00
2023-03-17T01:43:04.932Z,100.00
2023-03-17T01:46:11.677Z,100.00
2023-03-17T01:48:42.644Z,100.00
2023-03-17T01:51:17.074Z,100.00
2023-03-17T01:53:47.432Z,100.00
2023-03-17T01:56:18.072Z,100.00
2023-03-17T01:58:48.298Z,100.00
2023-03-17T02:01:16.103Z,100.00
2023-03-17T02:03:43.998Z,100.00
2023-03-17T02:06:14.066Z,100.00
2023-03-17T02:08:41.740Z,100.00
2023-03-17T02:11:09.615Z,100.00
2023-03-17T02:13:41.189Z,100.00
2023-03-17T02:16:15.761Z,100.00
2023-03-17T02:18:43.437Z,100.00
2023-03-17T02:21:32.527Z,100.00
2023-03-17T02:24:02.398Z,100.00
2023-03-17T02:26:34.349Z,100.00
2023-03-17T02:29:02.297Z,100.00
2023-03-17T02:31:30.229Z,100.00
2023-03-17T02:33:57.848Z,100.00
2023-03-17T02:36:25.859Z,100.00
2023-03-17T02:38:55.004Z,100.00
2023-03-17T02:41:23.355Z,100.00
2023-03-17T02:43:52.061Z,100.00
2023-03-17T02:46:19.806Z,100.00
2023-03-17T02:48:47.774Z,100.00
2023-03-17T02:51:16.249Z,100.00
2023-03-17T02:53:43.881Z,100.00
2023-03-17T02:56:12.995Z,100.00
2023-03-17T02:58:40.706Z,100.00
2023-03-17T03:01:09.594Z,100.00
2023-03-17T03:03:37.324Z,100.00
2023-03-17T03:06:05.509Z,100.00
2023-03-17T03:08:33.189Z,100.00
2023-03-17T03:11:02.481Z,100.00
2023-03-17T03:13:31.928Z,100.00
2023-03-17T03:16:00.332Z,100.00
2023-03-17T03:18:28.375Z,100.00
2023-03-17T03:20:56.065Z,100.00
2023-03-17T03:23:24.210Z,100.00
2023-03-17T03:25:52.004Z,100.00
2023-03-17T03:28:19.915Z,100.00
2023-03-17T03:30:49.031Z,100.00
2023-03-17T03:33:16.999Z,100.00
2023-03-17T03:35:44.927Z,100.00
2023-03-17T03:38:17.523Z,100.00
2023-03-17T03:40:45.930Z,100.00
2023-03-17T03:43:22.903Z,100.00
2023-03-17T03:45:54.487Z,100.00
2023-03-17T03:48:22.819Z,100.00
2023-03-17T03:50:50.900Z,100.00
2023-03-17T03:53:18.610Z,100.00
2023-03-17T03:55:46.647Z,100.00
2023-03-17T03:58:15.615Z,100.00
2023-03-17T04:00:43.503Z,100.00
2023-03-17T04:03:12.575Z,100.00
2023-03-17T04:05:40.591Z,100.00
2023-03-17T04:08:09.010Z,100.00
2023-03-17T04:10:39.947Z,100.00
2023-03-17T04:13:08.505Z,100.00
2023-03-17T04:15:36.536Z,100.00
2023-03-17T04:18:05.284Z,100.00
2023-03-17T04:20:34.361Z,100.00
2023-03-17T04:23:02.074Z,100.00
2023-03-17T04:25:29.781Z,100.00
2023-03-17T04:27:57.462Z,100.00
2023-03-17T04:30:25.367Z,100.00
2023-03-17T04:32:53.106Z,100.00
2023-03-17T04:35:22.856Z,100.00
2023-03-17T04:37:51.967Z,100.00
2023-03-17T04:40:20.715Z,100.00
2023-03-17T04:42:50.485Z,100.00
2023-03-17T04:45:18.356Z,100.00
2023-03-17T04:47:46.459Z,100.00
2023-03-17T04:50:15.301Z,100.00
2023-03-17T04:52:43.170Z,100.00
2023-03-17T04:55:12.924Z,100.00
2023-03-17T04:57:40.721Z,100.00
2023-03-17T05:00:09.736Z,100.00
2023-03-17T05:02:38.827Z,100.00
2023-03-17T05:05:06.814Z,100.00
2023-03-17T05:07:34.679Z,100.00
2023-03-17T05:10:03.802Z,100.00
2023-03-17T05:12:32.932Z,100.00
2023-03-17T05:15:00.692Z,100.00
2023-03-17T05:17:28.331Z,100.00
2023-03-17T05:19:56.013Z,100.00
2023-03-17T05:22:34.366Z,100.00
2023-03-17T05:25:02.508Z,100.00
2023-03-17T05:27:37.047Z,100.00
2023-03-17T05:30:05.585Z,100.00
2023-03-17T05:32:33.288Z,100.00
2023-03-17T05:35:01.207Z,100.00
2023-03-17T05:37:29.458Z,100.00
2023-03-17T05:39:57.610Z,100.00
2023-03-17T05:42:25.249Z,100.00
2023-03-17T05:44:57.103Z,100.00
2023-03-17T05:47:24.794Z,100.00
2023-03-17T05:49:52.556Z,100.00
2023-03-17T05:52:20.256Z,100.00
2023-03-17T05:54:49.154Z,100.00
2023-03-17T05:57:17.329Z,100.00
2023-03-17T05:59:45.480Z,100.00
2023-03-17T06:02:15.602Z,100.00
2023-03-17T06:04:46.228Z,100.00
2023-03-17T06:07:13.984Z,100.00
2023-03-17T06:09:41.849Z,100.00
2023-03-17T06:12:10.330Z,100.00
2023-03-17T06:14:38.032Z,100.00
2023-03-17T06:17:09.265Z,100.00
2023-03-17T06:19:38.339Z,100.00
2023-03-17T06:22:06.988Z,100.00
2023-03-17T06:24:34.864Z,100.00
2023-03-17T06:27:02.604Z,100.00
2023-03-17T06:29:30.705Z,100.00
2023-03-17T06:32:09.181Z,100.00
2023-03-17T06:34:46.459Z,100.00
2023-03-17T06:37:14.574Z,100.00
2023-03-17T06:39:42.862Z,100.00
2023-03-17T06:42:11.067Z,100.00
2023-03-17T06:44:38.803Z,100.00
2023-03-17T06:47:06.978Z,100.00
2023-03-17T06:49:35.018Z,100.00
2023-03-17T06:52:04.736Z,100.00
2023-03-17T06:54:32.714Z,100.00
2023-03-17T06:57:00.782Z,100.00
2023-03-17T06:59:30.566Z,100.00
2023-03-17T07:01:58.953Z,100.00
2023-03-17T07:04:27.241Z,100.00
2023-03-17T07:06:54.932Z,100.00
2023-03-17T07:09:23.933Z,100.00
2023-03-17T07:11:51.626Z,100.00
2023-03-17T07:14:20.204Z,100.00
2023-03-17T07:16:48.455Z,100.00
2023-03-17T07:19:16.173Z,100.00
2023-03-17T07:21:45.989Z,100.00
2023-03-17T07:24:14.551Z,100.00
2023-03-17T07:26:43.644Z,100.00
2023-03-17T07:29:11.354Z,100.00
2023-03-17T07:31:39.680Z,100.00
2023-03-17T07:34:07.659Z,100.00
2023-03-17T07:36:35.897Z,100.00
2023-03-17T07:39:04.553Z,100.00
2023-03-17T07:41:32.265Z,100.00
2023-03-17T07:44:01.818Z,100.00
2023-03-17T07:46:29.647Z,100.00
2023-03-17T07:48:57.464Z,100.00
2023-03-17T07:51:27.772Z,100.00
2023-03-17T07:54:03.154Z,100.00
2023-03-17T07:56:32.279Z,100.00
2023-03-17T07:59:01.670Z,100.00
2023-03-17T08:01:30.748Z,100.00
2023-03-17T08:03:58.629Z,100.00
2023-03-17T08:06:26.556Z,100.00
2023-03-17T08:08:55.300Z,100.00
2023-03-17T08:11:23.350Z,100.00
2023-03-17T08:13:51.176Z,100.00
2023-03-17T08:16:20.202Z,100.00
2023-03-17T08:18:48.032Z,100.00
2023-03-17T08:21:15.982Z,100.00
2023-03-17T08:23:43.734Z,100.00
2023-03-17T08:26:14.049Z,100.00
2023-03-17T08:28:41.871Z,100.00
2023-03-17T08:31:12.870Z,100.00
2023-03-17T08:33:42.735Z,100.00
2023-03-17T08:36:11.785Z,100.00
2023-03-17T08:38:40.337Z,100.00
2023-03-17T08:41:10.796Z,100.00
2023-03-17T08:43:38.577Z,100.00
2023-03-17T08:46:08.988Z,100.00
2023-03-17T08:48:37.966Z,100.00
2023-03-17T08:51:07.947Z,100.00
2023-03-17T08:53:36.157Z,100.00
2023-03-17T08:56:06.693Z,100.00
2023-03-17T08:58:34.548Z,100.00
2023-03-17T09:01:02.875Z,100.00
2023-03-17T09:03:31.264Z,100.00
2023-03-17T09:06:06.329Z,100.00
2023-03-17T09:08:37.606Z,100.00
2023-03-17T09:11:06.726Z,100.00
2023-03-17T09:13:37.195Z,100.00
2023-03-17T09:16:05.063Z,97.67
2023-03-17T09:18:33.178Z,100.00
2023-03-17T09:21:02.391Z,100.00
2023-03-17T09:23:30.942Z,100.00
2023-03-17T09:26:00.053Z,97.31
2023-03-17T09:28:27.855Z,95.30
2023-03-17T09:30:59.070Z,90.27
2023-03-17T09:33:27.244Z,95.15
2023-03-17T09:35:57.032Z,86.04
2023-03-17T09:38:24.994Z,84.37
2023-03-17T09:40:58.587Z,86.94
2023-03-17T09:43:37.028Z,82.94
2023-03-17T09:46:17.724Z,81.67
2023-03-17T09:48:56.160Z,85.78
2023-03-17T09:51:23.926Z,79.46
2023-03-17T09:53:59.929Z,74.72
2023-03-17T09:56:30.060Z,70.63
2023-03-17T09:59:01.980Z,75.06
2023-03-17T10:01:29.804Z,73.20
2023-03-17T10:03:57.669Z,67.23
2023-03-17T10:06:34.545Z,67.29
2023-03-17T10:09:12.029Z,69.98
2023-03-17T10:11:42.464Z,66.49
2023-03-17T10:14:24.758Z,63.78
2023-03-17T10:16:59.150Z,61.46
2023-03-17T10:19:29.821Z,53.18
2023-03-17T10:22:02.128Z,57.17
2023-03-17T10:24:32.761Z,53.05
2023-03-17T10:27:04.672Z,50.97
2023-03-17T10:29:33.713Z,48.51
2023-03-17T10:32:01.740Z,52.04
2023-03-17T10:34:32.219Z,49.07
2023-03-17T10:37:06.533Z,48.79
2023-03-17T10:39:46.147Z,53.26
2023-03-17T10:42:23.206Z,49.38
2023-03-17T10:44:56.167Z,50.39
2023-03-17T10:47:28.609Z,50.29
2023-03-17T10:49:58.163Z,46.03
2023-03-17T10:52:28.761Z,46.25
2023-03-17T10:54:56.970Z,48.29
2023-03-17T10:57:24.969Z,46.15
2023-03-17T10:59:56.547Z,44.34
2023-03-17T11:02:29.417Z,46.13
2023-03-17T11:05:01.838Z,38.96
2023-03-17T11:07:35.244Z,39.21
2023-03-17T11:10:05.880Z,37.72
2023-03-17T11:12:40.738Z,37.01
2023-03-17T11:15:14.529Z,36.77
2023-03-17T11:17:49.303Z,37.44
2023-03-17T11:20:36.058Z,39.67
2023-03-17T11:23:08.699Z,36.76
2023-03-17T11:25:43.373Z,37.06
2023-03-17T11:28:20.307Z,38.93
2023-03-17T11:30:59.429Z,38.27
2023-03-17T11:33:36.603Z,37.99
2023-03-17T11:36:15.501Z,39.50
2023-03-17T11:38:54.501Z,39.88
2023-03-17T11:41:48.850Z,39.10
2023-03-17T11:44:47.525Z,43.09
2023-03-17T11:47:29.687Z,41.83
2023-03-17T11:50:08.383Z,43.30
2023-03-17T11:52:52.042Z,46.94
2023-03-17T11:55:24.943Z,44.93
2023-03-17T11:57:59.816Z,43.73
2023-03-17T12:00:34.259Z,45.57
2023-03-17T12:03:16.696Z,44.74
2023-03-17T12:05:50.142Z,42.43
2023-03-17T12:08:24.987Z,45.37
2023-03-17T12:10:56.703Z,47.04
2023-03-17T12:13:30.633Z,42.88
2023-03-17T12:16:05.386Z,44.78
2023-03-17T12:18:38.623Z,40.39
2023-03-17T12:21:14.561Z,41.90
2023-03-17T12:23:49.865Z,40.17
2023-03-17T12:26:20.223Z,41.00
2023-03-17T12:28:52.286Z,36.14
2023-03-17T12:31:23.944Z,38.75
2023-03-17T12:34:00.816Z,39.27
2023-03-17T12:36:29.234Z,39.25
2023-03-17T12:39:02.425Z,36.47
2023-03-17T12:41:46.615Z,37.53
2023-03-17T12:44:27.709Z,36.88
2023-03-17T12:47:17.220Z,39.59
2023-03-17T12:50:41.992Z,37.48
2023-03-17T12:53:27.368Z,37.40
2023-03-17T12:56:00.228Z,38.54
2023-03-17T12:58:36.662Z,36.85
2023-03-17T13:01:15.992Z,37.43
2023-03-17T13:03:58.600Z,39.70
2023-03-17T13:06:31.610Z,39.48
2023-03-17T13:09:31.745Z,39.83
2023-03-17T13:12:01.166Z,38.53
2023-03-17T13:14:42.086Z,40.70
2023-03-17T13:17:32.177Z,43.11
2023-03-17T13:20:14.369Z,45.26
2023-03-17T13:23:03.141Z,47.40
2023-03-17T13:25:34.986Z,49.13
2023-03-17T13:28:24.859Z,49.61
2023-03-17T13:31:00.556Z,51.28
2023-03-17T13:33:32.332Z,52.09
2023-03-17T13:36:18.633Z,53.72
2023-03-17T13:39:18.366Z,54.61
2023-03-17T13:42:05.581Z,54.57
2023-03-17T13:44:56.332Z,58.89
2023-03-17T13:47:34.774Z,59.71
2023-03-17T13:50:08.821Z,58.97
2023-03-17T13:52:42.159Z,58.27
2023-03-17T13:55:46.084Z,57.87
2023-03-17T13:58:49.931Z,57.91
2023-03-17T14:01:18.618Z,57.21
2023-03-17T14:03:50.048Z,57.41
2023-03-17T14:06:20.461Z,56.10
2023-03-17T14:08:51.971Z,54.09
2023-03-17T14:11:32.794Z,54.97
2023-03-17T14:14:29.610Z,55.58
2023-03-17T14:17:06.406Z,59.10
2023-03-17T14:19:34.542Z,61.87
2023-03-17T14:22:19.244Z,61.45
2023-03-17T14:24:47.275Z,60.58
2023-03-17T14:27:15.993Z,60.75
2023-03-17T14:29:45.429Z,59.24
2023-03-17T14:32:15.942Z,60.80
2023-03-17T14:34:46.116Z,60.92
2023-03-17T14:37:14.140Z,63.63
2023-03-17T14:39:46.811Z,67.21
2023-03-17T14:42:14.712Z,69.50
2023-03-17T14:44:44.191Z,73.83
2023-03-17T14:47:20.866Z,75.34
2023-03-17T14:49:49.546Z,76.14
2023-03-17T14:52:21.894Z,79.32
2023-03-17T14:54:53.478Z,81.23
2023-03-17T14:57:24.670Z,83.20
2023-03-17T15:00:01.000Z,83.96
2023-03-17T15:02:35.334Z,84.65
2023-03-17T15:05:07.825Z,86.02
2023-03-17T15:07:41.234Z,84.03
2023-03-17T15:10:16.504Z,84.11
2023-03-17T15:12:46.246Z,85.32
2023-03-17T15:15:23.704Z,83.39
2023-03-17T15:17:59.095Z,81.96
2023-03-17T15:20:26.857Z,83.63
2023-03-17T15:22:59.992Z,83.65
2023-03-17T15:25:34.550Z,82.83
2023-03-17T15:28:03.484Z,84.49
2023-03-17T15:30:45.747Z,83.79
2023-03-17T15:33:22.290Z,86.64
2023-03-17T15:35:50.513Z,89.60
2023-03-17T15:38:18.782Z,90.50
2023-03-17T15:40:46.671Z,91.01
2023-03-17T15:43:16.536Z,93.88
2023-03-17T15:45:45.217Z,91.63
2023-03-17T15:48:21.537Z,93.21
2023-03-17T15:50:49.874Z,96.42
2023-03-17T15:53:18.115Z,100.00
2023-03-17T15:55:47.249Z,98.27
2023-03-17T15:58:15.743Z,99.50
2023-03-17T16:00:44.362Z,99.99
2023-03-17T16:03:21.112Z,97.98
2023-03-17T16:05:49.028Z,100.00
2023-03-17T16:08:18.061Z,100.00
2023-03-17T16:10:46.875Z,100.00
2023-03-17T16:13:15.035Z,100.00
2023-03-17T16:15:45.831Z,100.00
2023-03-17T16:18:16.784Z,100.00
2023-03-17T16:20:48.592Z,100.00
2023-03-17T16:23:19.816Z,100.00
2023-03-17T16:25:48.032Z,100.00
2023-03-17T16:28:17.130Z,100.00
2023-03-17T16:30:46.182Z,100.00
2023-03-17T16:33:17.846Z,100.00
2023-03-17T16:35:48.796Z,100.00
2023-03-17T16:38:18.672Z,100.00
2023-03-17T16:40:48.565Z,100.00
2023-03-17T16:43:25.537Z,100.00
2023-03-17T16:45:55.383Z,100.00
2023-03-17T16:48:23.145Z,100.00
2023-03-17T16:50:52.544Z,100.00
2023-03-17T16:53:20.447Z,100.00
2023-03-17T16:55:48.520Z,100.00
2023-03-17T16:58:19.867Z,100.00
2023-03-17T17:00:48.651Z,100.00
2023-03-17T17:03:16.962Z,100.00
2023-03-17T17:05:45.682Z,100.00
2023-03-17T17:08:15.050Z,100.00
2023-03-17T17:10:42.900Z,100.00
2023-03-17T17:13:12.545Z,100.00
2023-03-17T17:15:41.471Z,100.00
2023-03-17T17:18:14.888Z,100.00
2023-03-17T17:20:43.710Z,100.00
2023-03-17T17:23:15.715Z,100.00
2023-03-17T17:25:43.952Z,100.00
2023-03-17T17:28:13.986Z,100.00
2023-03-17T17:30:45.148Z,100.00
2023-03-17T17:33:13.210Z,100.00
2023-03-17T17:35:42.247Z,100.00
2023-03-17T17:38:18.499Z,100.00
2023-03-17T17:40:46.314Z,100.00
2023-03-17T17:43:14.147Z,100.00
2023-03-17T17:45:43.472Z,100.00
2023-03-17T17:48:14.497Z,100.00
2023-03-17T17:50:43.039Z,100.00
2023-03-17T17:53:12.256Z,100.00
2023-03-17T17:55:42.737Z,100.00
2023-03-17T17:58:13.853Z,100.00
2023-03-17T18:00:41.626Z,100.00
2023-03-17T18:03:09.719Z,100.00
2023-03-17T18:05:38.043Z,100.00
2023-03-17T18:08:06.561Z,100.00
2023-03-17T18:10:35.129Z,100.00
2023-03-17T18:13:05.148Z,100.00
2023-03-17T18:15:33.075Z,100.00
2023-03-17T18:18:00.756Z,100.00
2023-03-17T18:20:28.490Z,100.00
2023-03-17T18:22:56.236Z,100.00
2023-03-17T18:25:25.369Z,100.00
2023-03-17T18:27:53.066Z,100.00
2023-03-17T18:30:24.649Z,100.00
2023-03-17T18:32:55.639Z,100.00
2023-03-17T18:35:25.316Z,100.00
2023-03-17T18:37:53.130Z,100.00
2023-03-17T18:40:21.190Z,100.00
2023-03-17T18:42:49.184Z,100.00
2023-03-17T18:45:17.067Z,100.00
2023-03-17T18:47:46.146Z,100.00
2023-03-17T18:50:15.915Z,100.00
2023-03-17T18:52:44.775Z,100.00
2023-03-17T18:55:14.353Z,100.00
2023-03-17T18:57:44.624Z,100.00
2023-03-17T19:00:14.469Z,100.00
2023-03-17T19:02:42.412Z,100.00
2023-03-17T19:05:12.859Z,100.00
2023-03-17T19:07:41.053Z,100.00
2023-03-17T19:10:09.782Z,100.00
2023-03-17T19:12:38.220Z,100.00
2023-03-17T19:15:07.707Z,100.00
2023-03-17T19:17:35.748Z,100.00
2023-03-17T19:20:03.872Z,100.00
2023-03-17T19:22:33.934Z,100.00
2023-03-17T19:25:02.147Z,100.00
2023-03-17T19:27:30.277Z,100.00
2023-03-17T19:30:00.769Z,100.00
2023-03-17T19:32:28.872Z,100.00
2023-03-17T19:34:56.595Z,100.00
2023-03-17T19:37:24.361Z,100.00
2023-03-17T19:39:53.451Z,100.00
2023-03-17T19:42:21.212Z,100.00
2023-03-17T19:44:49.121Z,100.00
2023-03-17T19:47:17.001Z,100.00
2023-03-17T19:49:44.816Z,100.00
2023-03-17T19:52:12.538Z,100.00
2023-03-17T19:54:43.608Z,100.00
2023-03-17T19:57:13.314Z,100.00
2023-03-17T19:59:41.491Z,100.00
2023-03-17T20:02:12.242Z,100.00
2023-03-17T20:04:40.039Z,100.00
2023-03-17T20:07:08.221Z,100.00
2023-03-17T20:09:37.872Z,100.00
2023-03-17T20:12:06.336Z,100.00
2023-03-17T20:14:36.023Z,100.00
2023-03-17T20:17:03.754Z,100.00
2023-03-17T20:19:31.612Z,100.00
2023-03-17T20:21:59.389Z,100.00
2023-03-17T20:24:29.203Z,100.00
2023-03-17T20:26:58.052Z,100.00
2023-03-17T20:29:26.194Z,100.00
2023-03-17T20:31:55.927Z,100.00
2023-03-17T20:34:23.841Z,100.00
2023-03-17T20:36:52.017Z,100.00
2023-03-17T20:39:20.740Z,100.00
2023-03-17T20:41:49.188Z,100.00
2023-03-17T20:44:17.765Z,100.00
2023-03-17T20:46:45.819Z,100.00
2023-03-17T20:49:16.907Z,100.00
2023-03-17T20:51:47.689Z,100.00
2023-03-17T20:54:15.559Z,100.00
2023-03-17T20:56:44.231Z,100.00
2023-03-17T20:59:13.346Z,100.00
2023-03-17T21:01:42.750Z,100.00
2023-03-17T21:04:15.624Z,100.00
2023-03-17T21:06:45.058Z,100.00
2023-03-17T21:09:13.286Z,100.00
2023-03-17T21:11:41.174Z,100.00
2023-03-17T21:14:09.223Z,100.00
2023-03-17T21:16:38.741Z,100.00
2023-03-17T21:19:09.761Z,100.00
2023-03-17T21:21:37.769Z,100.00
2023-03-17T21:24:08.408Z,100.00
2023-03-17T21:26:36.221Z,100.00
2023-03-17T21:29:04.080Z,100.00
2023-03-17T21:31:32.271Z,100.00
2023-03-17T21:34:00.180Z,100.00
2023-03-17T21:36:28.674Z,100.00
2023-03-17T21:38:56.440Z,100.00
2023-03-17T21:41:32.116Z,100.00
2023-03-17T21:44:00.400Z,100.00
2023-03-17T21:46:28.171Z,100.00
2023-03-17T21:48:57.172Z,100.00
2023-03-17T21:51:25.694Z,100.00
2023-03-17T21:53:53.950Z,100.00
2023-03-17T21:56:22.099Z,100.00
2023-03-17T21:58:51.533Z,100.00
2023-03-17T22:01:20.512Z,100.00
2023-03-17T22:03:48.695Z,100.00
2023-03-17T22:06:17.684Z,100.00
2023-03-17T22:08:46.161Z,100.00
2023-03-17T22:11:16.533Z,100.00
2023-03-17T22:13:45.549Z,100.00
2023-03-17T22:16:16.155Z,100.00
2023-03-17T22:18:44.469Z,100.00
2023-03-17T22:21:12.251Z,100.00
2023-03-17T22:23:41.987Z,100.00
2023-03-17T22:26:12.334Z,100.00
2023-03-17T22:28:40.755Z,100.00
2023-03-17T22:31:14.437Z,100.00
2023-03-17T22:33:42.785Z,100.00
2023-03-17T22:36:11.246Z,100.00
2023-03-17T22:38:39.317Z,100.00
2023-03-17T22:41:09.112Z,100.00
2023-03-17T22:43:40.128Z,100.00
2023-03-17T22:46:07.925Z,100.00
2023-03-17T22:48:37.132Z,100.00
2023-03-17T22:51:06.813Z,100.00
2023-03-17T23:00:08.519Z,100.00
2023-03-17T23:02:36.268Z,100.00
2023-03-17T23:05:07.134Z,100.00
2023-03-17T23:07:47.823Z,100.00
2023-03-17T23:10:22.048Z,100.00
2023-03-17T23:12:50.800Z,100.00
2023-03-17T23:15:20.999Z,100.00
2023-03-17T23:17:48.875Z,100.00
2023-03-17T23:20:16.921Z,100.00
2023-03-17T23:22:44.573Z,100.00
2023-03-17T23:25:13.602Z,100.00
2023-03-17T23:27:41.871Z,100.00
2023-03-17T23:30:11.847Z,100.00
2023-03-17T23:32:42.811Z,100.00
2023-03-17T23:35:12.595Z,100.00
2023-03-17T23:37:41.085Z,100.00
2023-03-17T23:40:10.815Z,100.00
2023-03-17T23:42:38.588Z,100.00
2023-03-17T23:45:07.201Z,100.00
2023-03-17T23:47:34.996Z,100.00
2023-03-17T23:50:04.965Z,100.00
2023-03-17T23:52:32.701Z,100.00
2023-03-17T23:55:01.058Z,100.00
2023-03-17T23:57:28.971Z,100.00
2023-03-17T23:59:57.113Z,100.00
